sensor_id;sensor_type;location;lat;lon;timestamp;P1;durP1;ratioP1;P2;durP2;ratioP2
38909;SDS011;24676;51.360;12.354;2023-03-19T00:02:37;10.50;;;5.68;;
38909;SDS011;24676;51.360;12.354;2023-03-19T00:05:21;9.25;;;4.78;;
38909;SDS011;24676;51.360;12.354;2023-03-19T00:08:06;7.78;;;6.03;;
38909;SDS011;24676;51.360;12.354;2023-03-19T00:10:51;11.23;;;5.18;;
38909;SDS011;24676;51.360;12.354;2023-03-19T00:13:35;11.27;;;4.82;;
38909;SDS011;24676;51.360;12.354;2023-03-19T00:16:20;11.65;;;4.45;;
38909;SDS011;24676;51.360;12.354;2023-03-19T00:19:04;15.85;;;5.88;;
38909;SDS011;24676;51.360;12.354;2023-03-19T00:21:49;8.95;;;5.43;;
38909;SDS011;24676;51.360;12.354;2023-03-19T00:24:33;10.45;;;5.28;;
38909;SDS011;24676;51.360;12.354;2023-03-19T00:27:17;6.28;;;4.00;;
38909;SDS011;24676;51.360;12.354;2023-03-19T00:30:02;13.98;;;4.18;;
38909;SDS011;24676;51.360;12.354;2023-03-19T00:32:48;12.40;;;4.72;;
38909;SDS011;24676;51.360;12.354;2023-03-19T00:35:32;11.05;;;6.15;;
38909;SDS011;24676;51.360;12.354;2023-03-19T00:38:16;7.00;;;4.85;;
38909;SDS011;24676;51.360;12.354;2023-03-19T00:41:00;10.10;;;4.82;;
38909;SDS011;24676;51.360;12.354;2023-03-19T00:43:46;6.05;;;5.18;;
38909;SDS011;24676;51.360;12.354;2023-03-19T00:46:34;9.63;;;4.38;;
38909;SDS011;24676;51.360;12.354;2023-03-19T00:49:19;8.90;;;4.85;;
38909;SDS011;24676;51.360;12.354;2023-03-19T00:52:03;7.88;;;5.90;;
38909;SDS011;24676;51.360;12.354;2023-03-19T00:54:48;16.25;;;4.47;;
38909;SDS011;24676;51.360;12.354;2023-03-19T00:57:32;7.60;;;3.95;;
38909;SDS011;24676;51.360;12.354;2023-03-19T01:00:17;10.30;;;4.72;;
38909;SDS011;24676;51.360;12.354;2023-03-19T01:03:02;14.20;;;5.63;;
38909;SDS011;24676;51.360;12.354;2023-03-19T01:05:47;9.77;;;4.88;;
38909;SDS011;24676;51.360;12.354;2023-03-19T01:08:31;7.47;;;4.82;;
38909;SDS011;24676;51.360;12.354;2023-03-19T01:11:16;15.70;;;5.75;;
38909;SDS011;24676;51.360;12.354;2023-03-19T01:14:01;10.63;;;5.57;;
38909;SDS011;24676;51.360;12.354;2023-03-19T01:16:45;9.25;;;4.70;;
38909;SDS011;24676;51.360;12.354;2023-03-19T01:19:29;12.18;;;5.72;;
38909;SDS011;24676;51.360;12.354;2023-03-19T01:22:14;10.23;;;4.55;;
38909;SDS011;24676;51.360;12.354;2023-03-19T01:24:59;9.50;;;4.68;;
38909;SDS011;24676;51.360;12.354;2023-03-19T01:27:44;9.00;;;5.07;;
38909;SDS011;24676;51.360;12.354;2023-03-19T01:30:29;9.82;;;5.60;;
38909;SDS011;24676;51.360;12.354;2023-03-19T01:33:13;8.30;;;4.85;;
38909;SDS011;24676;51.360;12.354;2023-03-19T01:35:58;7.65;;;3.85;;
38909;SDS011;24676;51.360;12.354;2023-03-19T01:38:45;19.80;;;5.53;;
38909;SDS011;24676;51.360;12.354;2023-03-19T01:41:30;6.57;;;4.90;;
38909;SDS011;24676;51.360;12.354;2023-03-19T01:44:24;11.05;;;5.75;;
38909;SDS011;24676;51.360;12.354;2023-03-19T01:47:52;9.30;;;5.13;;
38909;SDS011;24676;51.360;12.354;2023-03-19T01:50:24;8.55;;;5.57;;
38909;SDS011;24676;51.360;12.354;2023-03-19T01:53:14;9.95;;;3.72;;
38909;SDS011;24676;51.360;12.354;2023-03-19T01:56:11;6.35;;;4.55;;
38909;SDS011;24676;51.360;12.354;2023-03-19T01:59:11;9.30;;;4.35;;
38909;SDS011;24676;51.360;12.354;2023-03-19T02:05:13;8.82;;;5.35;;
38909;SDS011;24676;51.360;12.354;2023-03-19T02:08:02;10.57;;;5.07;;
38909;SDS011;24676;51.360;12.354;2023-03-19T02:10:49;7.07;;;4.53;;
38909;SDS011;24676;51.360;12.354;2023-03-19T02:13:36;7.57;;;5.35;;
38909;SDS011;24676;51.360;12.354;2023-03-19T02:16:21;14.05;;;5.68;;
38909;SDS011;24676;51.360;12.354;2023-03-19T02:19:05;9.18;;;4.65;;
38909;SDS011;24676;51.360;12.354;2023-03-19T02:21:55;8.70;;;5.75;;
38909;SDS011;24676;51.360;12.354;2023-03-19T02:27:52;9.20;;;5.47;;
38909;SDS011;24676;51.360;12.354;2023-03-19T02:30:37;9.57;;;5.03;;
38909;SDS011;24676;51.360;12.354;2023-03-19T02:33:21;7.25;;;4.03;;
38909;SDS011;24676;51.360;12.354;2023-03-19T02:36:07;9.60;;;4.95;;
38909;SDS011;24676;51.360;12.354;2023-03-19T02:38:54;7.10;;;4.15;;
38909;SDS011;24676;51.360;12.354;2023-03-19T02:41:41;7.88;;;4.93;;
38909;SDS011;24676;51.360;12.354;2023-03-19T02:44:26;6.70;;;3.92;;
38909;SDS011;24676;51.360;12.354;2023-03-19T02:47:11;7.78;;;4.13;;
38909;SDS011;24676;51.360;12.354;2023-03-19T02:49:55;8.13;;;4.10;;
38909;SDS011;24676;51.360;12.354;2023-03-19T02:52:39;7.93;;;4.70;;
38909;SDS011;24676;51.360;12.354;2023-03-19T02:55:24;8.25;;;5.35;;
38909;SDS011;24676;51.360;12.354;2023-03-19T02:58:08;13.85;;;5.68;;
38909;SDS011;24676;51.360;12.354;2023-03-19T03:00:52;8.32;;;4.38;;
38909;SDS011;24676;51.360;12.354;2023-03-19T03:03:37;6.85;;;4.82;;
38909;SDS011;24676;51.360;12.354;2023-03-19T03:06:21;8.13;;;4.32;;
38909;SDS011;24676;51.360;12.354;2023-03-19T03:09:06;9.40;;;5.70;;
38909;SDS011;24676;51.360;12.354;2023-03-19T03:11:50;11.23;;;5.70;;
38909;SDS011;24676;51.360;12.354;2023-03-19T03:14:34;9.10;;;4.70;;
38909;SDS011;24676;51.360;12.354;2023-03-19T03:17:18;7.00;;;5.18;;
38909;SDS011;24676;51.360;12.354;2023-03-19T03:20:03;6.65;;;4.45;;
38909;SDS011;24676;51.360;12.354;2023-03-19T03:22:48;6.88;;;5.78;;
38909;SDS011;24676;51.360;12.354;2023-03-19T03:25:32;9.32;;;4.18;;
38909;SDS011;24676;51.360;12.354;2023-03-19T03:28:18;6.35;;;4.85;;
38909;SDS011;24676;51.360;12.354;2023-03-19T03:31:02;11.15;;;5.18;;
38909;SDS011;24676;51.360;12.354;2023-03-19T03:33:47;10.40;;;5.28;;
38909;SDS011;24676;51.360;12.354;2023-03-19T03:36:31;7.97;;;4.47;;
38909;SDS011;24676;51.360;12.354;2023-03-19T03:39:16;11.00;;;4.88;;
38909;SDS011;24676;51.360;12.354;2023-03-19T03:42:01;10.38;;;4.57;;
38909;SDS011;24676;51.360;12.354;2023-03-19T03:44:46;12.98;;;5.45;;
38909;SDS011;24676;51.360;12.354;2023-03-19T03:47:30;11.68;;;6.82;;
38909;SDS011;24676;51.360;12.354;2023-03-19T03:50:15;14.18;;;6.22;;
38909;SDS011;24676;51.360;12.354;2023-03-19T03:52:59;9.45;;;4.78;;
38909;SDS011;24676;51.360;12.354;2023-03-19T03:55:44;6.43;;;4.15;;
38909;SDS011;24676;51.360;12.354;2023-03-19T03:58:28;6.55;;;4.57;;
38909;SDS011;24676;51.360;12.354;2023-03-19T04:01:15;8.65;;;5.55;;
38909;SDS011;24676;51.360;12.354;2023-03-19T04:04:00;7.20;;;4.35;;
38909;SDS011;24676;51.360;12.354;2023-03-19T04:06:45;13.55;;;6.20;;
38909;SDS011;24676;51.360;12.354;2023-03-19T04:09:29;17.90;;;5.07;;
38909;SDS011;24676;51.360;12.354;2023-03-19T04:12:13;6.82;;;3.95;;
38909;SDS011;24676;51.360;12.354;2023-03-19T04:14:58;9.02;;;4.63;;
38909;SDS011;24676;51.360;12.354;2023-03-19T04:17:42;8.25;;;4.72;;
38909;SDS011;24676;51.360;12.354;2023-03-19T04:20:27;4.82;;;3.33;;
38909;SDS011;24676;51.360;12.354;2023-03-19T04:23:12;7.57;;;4.28;;
38909;SDS011;24676;51.360;12.354;2023-03-19T04:25:57;8.57;;;4.53;;
38909;SDS011;24676;51.360;12.354;2023-03-19T04:28:42;8.82;;;5.18;;
38909;SDS011;24676;51.360;12.354;2023-03-19T04:31:27;10.43;;;5.00;;
38909;SDS011;24676;51.360;12.354;2023-03-19T04:34:11;5.90;;;3.70;;
38909;SDS011;24676;51.360;12.354;2023-03-19T04:36:56;5.80;;;3.65;;
38909;SDS011;24676;51.360;12.354;2023-03-19T04:39:40;8.52;;;4.55;;
38909;SDS011;24676;51.360;12.354;2023-03-19T04:42:24;5.50;;;3.40;;
38909;SDS011;24676;51.360;12.354;2023-03-19T04:45:08;5.68;;;4.80;;
38909;SDS011;24676;51.360;12.354;2023-03-19T04:47:52;7.72;;;4.57;;
38909;SDS011;24676;51.360;12.354;2023-03-19T04:50:37;12.82;;;6.53;;
38909;SDS011;24676;51.360;12.354;2023-03-19T04:53:22;13.32;;;4.95;;
38909;SDS011;24676;51.360;12.354;2023-03-19T04:56:07;8.32;;;5.22;;
38909;SDS011;24676;51.360;12.354;2023-03-19T04:58:52;8.20;;;4.35;;
38909;SDS011;24676;51.360;12.354;2023-03-19T05:01:36;9.68;;;4.20;;
38909;SDS011;24676;51.360;12.354;2023-03-19T05:04:21;11.85;;;4.97;;
38909;SDS011;24676;51.360;12.354;2023-03-19T05:07:06;5.60;;;4.97;;
38909;SDS011;24676;51.360;12.354;2023-03-19T05:09:51;7.47;;;4.88;;
38909;SDS011;24676;51.360;12.354;2023-03-19T05:12:35;10.27;;;5.47;;
38909;SDS011;24676;51.360;12.354;2023-03-19T05:15:19;8.43;;;5.32;;
38909;SDS011;24676;51.360;12.354;2023-03-19T05:18:04;8.35;;;4.38;;
38909;SDS011;24676;51.360;12.354;2023-03-19T05:20:48;11.18;;;6.40;;
38909;SDS011;24676;51.360;12.354;2023-03-19T05:23:32;4.20;;;3.35;;
38909;SDS011;24676;51.360;12.354;2023-03-19T05:26:17;12.32;;;5.07;;
38909;SDS011;24676;51.360;12.354;2023-03-19T05:29:02;8.82;;;4.93;;
38909;SDS011;24676;51.360;12.354;2023-03-19T05:31:47;5.85;;;4.38;;
38909;SDS011;24676;51.360;12.354;2023-03-19T05:34:32;7.90;;;3.97;;
38909;SDS011;24676;51.360;12.354;2023-03-19T05:37:16;8.13;;;5.50;;
38909;SDS011;24676;51.360;12.354;2023-03-19T05:40:00;17.63;;;6.47;;
38909;SDS011;24676;51.360;12.354;2023-03-19T05:42:44;8.57;;;3.80;;
38909;SDS011;24676;51.360;12.354;2023-03-19T05:45:28;5.90;;;4.88;;
38909;SDS011;24676;51.360;12.354;2023-03-19T05:48:13;10.63;;;4.05;;
38909;SDS011;24676;51.360;12.354;2023-03-19T05:50:57;8.63;;;5.47;;
38909;SDS011;24676;51.360;12.354;2023-03-19T05:53:41;9.18;;;4.50;;
38909;SDS011;24676;51.360;12.354;2023-03-19T05:56:26;8.63;;;4.50;;
38909;SDS011;24676;51.360;12.354;2023-03-19T05:59:11;16.70;;;4.90;;
38909;SDS011;24676;51.360;12.354;2023-03-19T06:01:56;6.60;;;3.90;;
38909;SDS011;24676;51.360;12.354;2023-03-19T06:04:41;7.75;;;5.28;;
38909;SDS011;24676;51.360;12.354;2023-03-19T06:07:25;13.52;;;4.45;;
38909;SDS011;24676;51.360;12.354;2023-03-19T06:10:10;7.03;;;3.88;;
38909;SDS011;24676;51.360;12.354;2023-03-19T06:12:54;7.78;;;4.22;;
38909;SDS011;24676;51.360;12.354;2023-03-19T06:15:39;9.30;;;4.78;;
38909;SDS011;24676;51.360;12.354;2023-03-19T06:18:23;7.15;;;4.55;;
38909;SDS011;24676;51.360;12.354;2023-03-19T06:21:08;12.10;;;4.35;;
38909;SDS011;24676;51.360;12.354;2023-03-19T06:23:52;14.52;;;5.50;;
38909;SDS011;24676;51.360;12.354;2023-03-19T06:26:37;12.52;;;5.55;;
38909;SDS011;24676;51.360;12.354;2023-03-19T06:29:21;8.23;;;5.53;;
38909;SDS011;24676;51.360;12.354;2023-03-19T06:32:05;7.32;;;4.18;;
38909;SDS011;24676;51.360;12.354;2023-03-19T06:34:52;8.55;;;5.38;;
38909;SDS011;24676;51.360;12.354;2023-03-19T06:37:38;7.40;;;5.70;;
38909;SDS011;24676;51.360;12.354;2023-03-19T06:40:22;9.38;;;5.15;;
38909;SDS011;24676;51.360;12.354;2023-03-19T06:43:06;8.43;;;3.92;;
38909;SDS011;24676;51.360;12.354;2023-03-19T06:45:51;10.15;;;4.45;;
38909;SDS011;24676;51.360;12.354;2023-03-19T06:48:35;6.13;;;3.63;;
38909;SDS011;24676;51.360;12.354;2023-03-19T06:51:20;3.90;;;3.55;;
38909;SDS011;24676;51.360;12.354;2023-03-19T06:54:04;9.98;;;3.55;;
38909;SDS011;24676;51.360;12.354;2023-03-19T06:56:49;12.85;;;4.93;;
38909;SDS011;24676;51.360;12.354;2023-03-19T06:59:34;4.78;;;3.65;;
38909;SDS011;24676;51.360;12.354;2023-03-19T07:02:18;10.35;;;4.22;;
38909;SDS011;24676;51.360;12.354;2023-03-19T07:05:02;9.50;;;4.72;;
38909;SDS011;24676;51.360;12.354;2023-03-19T07:07:47;7.53;;;4.28;;
38909;SDS011;24676;51.360;12.354;2023-03-19T07:10:31;12.48;;;4.18;;
38909;SDS011;24676;51.360;12.354;2023-03-19T07:13:15;7.45;;;3.65;;
38909;SDS011;24676;51.360;12.354;2023-03-19T07:16:00;3.95;;;3.47;;
38909;SDS011;24676;51.360;12.354;2023-03-19T07:18:44;5.43;;;3.90;;
38909;SDS011;24676;51.360;12.354;2023-03-19T07:21:28;5.57;;;4.18;;
38909;SDS011;24676;51.360;12.354;2023-03-19T07:24:13;7.15;;;4.18;;
38909;SDS011;24676;51.360;12.354;2023-03-19T07:26:58;8.93;;;3.53;;
38909;SDS011;24676;51.360;12.354;2023-03-19T07:29:42;8.02;;;3.78;;
38909;SDS011;24676;51.360;12.354;2023-03-19T07:32:26;8.90;;;4.00;;
38909;SDS011;24676;51.360;12.354;2023-03-19T07:35:14;8.40;;;4.15;;
38909;SDS011;24676;51.360;12.354;2023-03-19T07:37:58;3.63;;;2.95;;
38909;SDS011;24676;51.360;12.354;2023-03-19T07:40:43;8.90;;;3.92;;
38909;SDS011;24676;51.360;12.354;2023-03-19T07:43:27;6.57;;;3.72;;
38909;SDS011;24676;51.360;12.354;2023-03-19T07:46:12;6.65;;;3.55;;
38909;SDS011;24676;51.360;12.354;2023-03-19T07:48:56;11.90;;;4.63;;
38909;SDS011;24676;51.360;12.354;2023-03-19T07:51:40;6.45;;;3.97;;
38909;SDS011;24676;51.360;12.354;2023-03-19T07:54:25;8.45;;;4.45;;
38909;SDS011;24676;51.360;12.354;2023-03-19T07:57:09;11.50;;;3.95;;
38909;SDS011;24676;51.360;12.354;2023-03-19T07:59:53;6.53;;;5.35;;
38909;SDS011;24676;51.360;12.354;2023-03-19T08:02:37;6.43;;;3.83;;
38909;SDS011;24676;51.360;12.354;2023-03-19T08:05:22;9.57;;;4.45;;
38909;SDS011;24676;51.360;12.354;2023-03-19T08:08:06;3.95;;;3.08;;
38909;SDS011;24676;51.360;12.354;2023-03-19T08:10:52;5.32;;;3.97;;
38909;SDS011;24676;51.360;12.354;2023-03-19T08:13:37;5.80;;;3.72;;
38909;SDS011;24676;51.360;12.354;2023-03-19T08:16:21;6.82;;;4.18;;
38909;SDS011;24676;51.360;12.354;2023-03-19T08:19:05;3.17;;;2.70;;
38909;SDS011;24676;51.360;12.354;2023-03-19T08:21:49;4.68;;;3.28;;
38909;SDS011;24676;51.360;12.354;2023-03-19T08:24:34;8.77;;;4.18;;
38909;SDS011;24676;51.360;12.354;2023-03-19T08:27:19;5.55;;;3.05;;
38909;SDS011;24676;51.360;12.354;2023-03-19T08:30:04;5.78;;;4.05;;
38909;SDS011;24676;51.360;12.354;2023-03-19T08:32:50;7.28;;;4.25;;
38909;SDS011;24676;51.360;12.354;2023-03-19T08:35:34;8.40;;;3.85;;
38909;SDS011;24676;51.360;12.354;2023-03-19T08:38:18;4.90;;;3.97;;
38909;SDS011;24676;51.360;12.354;2023-03-19T08:41:03;5.18;;;3.08;;
38909;SDS011;24676;51.360;12.354;2023-03-19T08:43:48;6.03;;;3.65;;
38909;SDS011;24676;51.360;12.354;2023-03-19T08:46:33;5.10;;;3.08;;
38909;SDS011;24676;51.360;12.354;2023-03-19T08:49:17;5.30;;;3.85;;
38909;SDS011;24676;51.360;12.354;2023-03-19T08:52:01;5.63;;;3.78;;
38909;SDS011;24676;51.360;12.354;2023-03-19T08:54:46;6.20;;;2.78;;
38909;SDS011;24676;51.360;12.354;2023-03-19T08:57:30;5.10;;;3.80;;
38909;SDS011;24676;51.360;12.354;2023-03-19T09:00:16;4.15;;;3.05;;
38909;SDS011;24676;51.360;12.354;2023-03-19T09:03:00;6.45;;;3.05;;
38909;SDS011;24676;51.360;12.354;2023-03-19T09:05:45;5.25;;;3.53;;
38909;SDS011;24676;51.360;12.354;2023-03-19T09:08:30;9.15;;;3.42;;
38909;SDS011;24676;51.360;12.354;2023-03-19T09:11:15;3.22;;;2.10;;
38909;SDS011;24676;51.360;12.354;2023-03-19T09:14:00;6.35;;;3.88;;
38909;SDS011;24676;51.360;12.354;2023-03-19T09:16:45;6.28;;;3.85;;
38909;SDS011;24676;51.360;12.354;2023-03-19T09:19:29;7.85;;;3.88;;
38909;SDS011;24676;51.360;12.354;2023-03-19T09:22:13;5.63;;;3.83;;
38909;SDS011;24676;51.360;12.354;2023-03-19T09:24:58;9.15;;;4.22;;
38909;SDS011;24676;51.360;12.354;2023-03-19T09:27:42;2.72;;;2.35;;
38909;SDS011;24676;51.360;12.354;2023-03-19T09:30:26;4.68;;;3.85;;
38909;SDS011;24676;51.360;12.354;2023-03-19T09:33:11;5.50;;;3.42;;
38909;SDS011;24676;51.360;12.354;2023-03-19T09:35:55;5.57;;;2.88;;
38909;SDS011;24676;51.360;12.354;2023-03-19T09:38:39;3.58;;;2.17;;
38909;SDS011;24676;51.360;12.354;2023-03-19T09:44:30;5.40;;;3.10;;
38909;SDS011;24676;51.360;12.354;2023-03-19T09:53:19;4.75;;;3.33;;
38909;SDS011;24676;51.360;12.354;2023-03-19T09:56:23;3.10;;;2.03;;
38909;SDS011;24676;51.360;12.354;2023-03-19T09:59:08;3.17;;;2.60;;
38909;SDS011;24676;51.360;12.354;2023-03-19T10:10:51;5.25;;;3.25;;
38909;SDS011;24676;51.360;12.354;2023-03-19T10:17:01;4.93;;;2.92;;
38909;SDS011;24676;51.360;12.354;2023-03-19T10:26:23;3.40;;;3.00;;
38909;SDS011;24676;51.360;12.354;2023-03-19T10:34:52;4.35;;;2.97;;
38909;SDS011;24676;51.360;12.354;2023-03-19T10:37:36;7.03;;;2.90;;
38909;SDS011;24676;51.360;12.354;2023-03-19T10:40:23;2.97;;;2.03;;
38909;SDS011;24676;51.360;12.354;2023-03-19T10:43:16;3.35;;;2.75;;
38909;SDS011;24676;51.360;12.354;2023-03-19T10:48:55;3.60;;;2.42;;
38909;SDS011;24676;51.360;12.354;2023-03-19T10:51:46;4.75;;;3.15;;
38909;SDS011;24676;51.360;12.354;2023-03-19T10:54:31;5.15;;;2.30;;
38909;SDS011;24676;51.360;12.354;2023-03-19T10:57:24;3.60;;;2.03;;
38909;SDS011;24676;51.360;12.354;2023-03-19T11:00:29;3.58;;;2.25;;
38909;SDS011;24676;51.360;12.354;2023-03-19T11:03:26;5.00;;;2.70;;
38909;SDS011;24676;51.360;12.354;2023-03-19T11:09:37;6.85;;;3.10;;
38909;SDS011;24676;51.360;12.354;2023-03-19T11:12:26;6.70;;;2.97;;
38909;SDS011;24676;51.360;12.354;2023-03-19T11:15:20;2.42;;;2.15;;
38909;SDS011;24676;51.360;12.354;2023-03-19T11:18:20;3.97;;;2.53;;
38909;SDS011;24676;51.360;12.354;2023-03-19T11:21:07;5.93;;;3.25;;
38909;SDS011;24676;51.360;12.354;2023-03-19T11:24:04;8.05;;;2.80;;
38909;SDS011;24676;51.360;12.354;2023-03-19T11:26:55;3.05;;;2.38;;
38909;SDS011;24676;51.360;12.354;2023-03-19T11:29:41;3.33;;;2.67;;
38909;SDS011;24676;51.360;12.354;2023-03-19T11:32:32;5.40;;;2.03;;
38909;SDS011;24676;51.360;12.354;2023-03-19T11:35:37;3.45;;;2.38;;
38909;SDS011;24676;51.360;12.354;2023-03-19T11:38:29;8.98;;;4.43;;
38909;SDS011;24676;51.360;12.354;2023-03-19T12:08:44;4.53;;;2.47;;
38909;SDS011;24676;51.360;12.354;2023-03-19T12:11:35;6.07;;;2.20;;
38909;SDS011;24676;51.360;12.354;2023-03-19T12:30:00;2.33;;;1.65;;
38909;SDS011;24676;51.360;12.354;2023-03-19T12:36:04;3.30;;;1.27;;
38909;SDS011;24676;51.360;12.354;2023-03-19T12:38:53;2.42;;;1.50;;
38909;SDS011;24676;51.360;12.354;2023-03-19T12:41:45;1.50;;;0.80;;
38909;SDS011;24676;51.360;12.354;2023-03-19T12:44:38;6.50;;;1.70;;
38909;SDS011;24676;51.360;12.354;2023-03-19T12:47:30;2.05;;;1.48;;
38909;SDS011;24676;51.360;12.354;2023-03-19T12:50:19;3.25;;;1.27;;
38909;SDS011;24676;51.360;12.354;2023-03-19T12:53:05;6.70;;;1.52;;
38909;SDS011;24676;51.360;12.354;2023-03-19T12:56:01;4.63;;;2.08;;
38909;SDS011;24676;51.360;12.354;2023-03-19T12:59:03;1.17;;;0.70;;
38909;SDS011;24676;51.360;12.354;2023-03-19T13:02:19;2.63;;;1.13;;
38909;SDS011;24676;51.360;12.354;2023-03-19T13:05:35;5.57;;;1.60;;
38909;SDS011;24676;51.360;12.354;2023-03-19T13:11:44;0.65;;;0.65;;
38909;SDS011;24676;51.360;12.354;2023-03-19T13:17:33;1.27;;;0.80;;
38909;SDS011;24676;51.360;12.354;2023-03-19T13:20:23;3.78;;;1.20;;
38909;SDS011;24676;51.360;12.354;2023-03-19T13:23:13;0.80;;;0.80;;
38909;SDS011;24676;51.360;12.354;2023-03-19T13:26:03;1.13;;;0.50;;
38909;SDS011;24676;51.360;12.354;2023-03-19T13:29:06;1.52;;;1.00;;
38909;SDS011;24676;51.360;12.354;2023-03-19T13:34:51;1.65;;;0.88;;
38909;SDS011;24676;51.360;12.354;2023-03-19T13:37:58;2.33;;;1.00;;
38909;SDS011;24676;51.360;12.354;2023-03-19T13:41:03;0.45;;;0.45;;
38909;SDS011;24676;51.360;12.354;2023-03-19T13:43:51;1.42;;;0.73;;
38909;SDS011;24676;51.360;12.354;2023-03-19T13:46:38;3.10;;;1.13;;
38909;SDS011;24676;51.360;12.354;2023-03-19T13:49:28;2.42;;;1.10;;
38909;SDS011;24676;51.360;12.354;2023-03-19T13:55:18;3.28;;;0.82;;
38909;SDS011;24676;51.360;12.354;2023-03-19T14:00:59;1.23;;;1.13;;
38909;SDS011;24676;51.360;12.354;2023-03-19T14:06:49;1.95;;;1.23;;
38909;SDS011;24676;51.360;12.354;2023-03-19T14:09:39;1.63;;;1.52;;
38909;SDS011;24676;51.360;12.354;2023-03-19T14:12:33;0.90;;;0.65;;
38909;SDS011;24676;51.360;12.354;2023-03-19T14:15:23;0.70;;;0.70;;
38909;SDS011;24676;51.360;12.354;2023-03-19T14:18:11;1.42;;;0.88;;
38909;SDS011;24676;51.360;12.354;2023-03-19T14:21:03;0.65;;;0.65;;
38909;SDS011;24676;51.360;12.354;2023-03-19T14:23:52;4.13;;;0.93;;
38909;SDS011;24676;51.360;12.354;2023-03-19T14:26:40;1.13;;;0.68;;
38909;SDS011;24676;51.360;12.354;2023-03-19T14:29:26;1.00;;;1.00;;
38909;SDS011;24676;51.360;12.354;2023-03-19T14:32:14;0.85;;;0.85;;
38909;SDS011;24676;51.360;12.354;2023-03-19T14:35:02;1.05;;;0.57;;
38909;SDS011;24676;51.360;12.354;2023-03-19T14:37:50;2.08;;;1.15;;
38909;SDS011;24676;51.360;12.354;2023-03-19T14:40:44;3.22;;;1.52;;
38909;SDS011;24676;51.360;12.354;2023-03-19T14:46:49;2.33;;;0.65;;
38909;SDS011;24676;51.360;12.354;2023-03-19T14:53:01;2.17;;;1.40;;
38909;SDS011;24676;51.360;12.354;2023-03-19T14:55:57;4.50;;;0.90;;
38909;SDS011;24676;51.360;12.354;2023-03-19T14:58:55;1.05;;;0.85;;
38909;SDS011;24676;51.360;12.354;2023-03-19T15:01:40;0.95;;;0.90;;
38909;SDS011;24676;51.360;12.354;2023-03-19T15:04:29;0.47;;;0.47;;
38909;SDS011;24676;51.360;12.354;2023-03-19T15:07:18;1.60;;;1.15;;
38909;SDS011;24676;51.360;12.354;2023-03-19T15:10:05;1.30;;;1.10;;
38909;SDS011;24676;51.360;12.354;2023-03-19T15:19:08;1.33;;;1.05;;
38909;SDS011;24676;51.360;12.354;2023-03-19T15:22:12;1.73;;;1.42;;
38909;SDS011;24676;51.360;12.354;2023-03-19T15:25:05;0.85;;;0.70;;
38909;SDS011;24676;51.360;12.354;2023-03-19T15:28:08;0.65;;;0.60;;
38909;SDS011;24676;51.360;12.354;2023-03-19T15:30:56;2.08;;;0.98;;
38909;SDS011;24676;51.360;12.354;2023-03-19T15:33:45;1.25;;;1.02;;
38909;SDS011;24676;51.360;12.354;2023-03-19T15:36:30;0.73;;;0.68;;
38909;SDS011;24676;51.360;12.354;2023-03-19T15:39:16;1.55;;;1.38;;
38909;SDS011;24676;51.360;12.354;2023-03-19T15:42:03;1.10;;;1.00;;
38909;SDS011;24676;51.360;12.354;2023-03-19T15:44:55;1.95;;;1.30;;
38909;SDS011;24676;51.360;12.354;2023-03-19T15:47:49;1.20;;;1.10;;
38909;SDS011;24676;51.360;12.354;2023-03-19T15:50:44;0.63;;;0.63;;
38909;SDS011;24676;51.360;12.354;2023-03-19T15:53:32;0.93;;;0.82;;
38909;SDS011;24676;51.360;12.354;2023-03-19T15:56:18;1.23;;;0.80;;
38909;SDS011;24676;51.360;12.354;2023-03-19T15:59:03;0.73;;;0.73;;
38909;SDS011;24676;51.360;12.354;2023-03-19T16:01:47;3.30;;;2.00;;
38909;SDS011;24676;51.360;12.354;2023-03-19T16:04:33;1.05;;;0.88;;
38909;SDS011;24676;51.360;12.354;2023-03-19T16:07:25;2.05;;;1.10;;
38909;SDS011;24676;51.360;12.354;2023-03-19T16:13:21;0.82;;;0.57;;
38909;SDS011;24676;51.360;12.354;2023-03-19T16:16:18;0.88;;;0.75;;
38909;SDS011;24676;51.360;12.354;2023-03-19T16:19:04;2.88;;;0.98;;
38909;SDS011;24676;51.360;12.354;2023-03-19T16:21:49;3.42;;;2.25;;
38909;SDS011;24676;51.360;12.354;2023-03-19T16:24:34;1.73;;;1.05;;
38909;SDS011;24676;51.360;12.354;2023-03-19T16:27:27;1.35;;;0.80;;
38909;SDS011;24676;51.360;12.354;2023-03-19T16:30:26;0.77;;;0.75;;
38909;SDS011;24676;51.360;12.354;2023-03-19T16:33:11;2.90;;;0.60;;
38909;SDS011;24676;51.360;12.354;2023-03-19T16:35:57;1.08;;;0.80;;
38909;SDS011;24676;51.360;12.354;2023-03-19T16:38:42;2.20;;;1.45;;
38909;SDS011;24676;51.360;12.354;2023-03-19T16:41:41;1.70;;;0.82;;
38909;SDS011;24676;51.360;12.354;2023-03-19T16:44:25;1.45;;;1.33;;
38909;SDS011;24676;51.360;12.354;2023-03-19T16:47:12;4.45;;;1.92;;
38909;SDS011;24676;51.360;12.354;2023-03-19T16:49:58;5.10;;;1.27;;
38909;SDS011;24676;51.360;12.354;2023-03-19T16:52:43;0.77;;;0.77;;
38909;SDS011;24676;51.360;12.354;2023-03-19T16:55:30;2.97;;;1.40;;
38909;SDS011;24676;51.360;12.354;2023-03-19T16:58:17;2.75;;;1.67;;
38909;SDS011;24676;51.360;12.354;2023-03-19T17:01:20;1.52;;;1.42;;
38909;SDS011;24676;51.360;12.354;2023-03-19T17:04:12;1.33;;;0.77;;
38909;SDS011;24676;51.360;12.354;2023-03-19T17:07:00;2.10;;;1.60;;
38909;SDS011;24676;51.360;12.354;2023-03-19T17:09:44;1.45;;;1.35;;
38909;SDS011;24676;51.360;12.354;2023-03-19T17:12:28;0.75;;;0.75;;
38909;SDS011;24676;51.360;12.354;2023-03-19T17:18:20;2.45;;;1.30;;
38909;SDS011;24676;51.360;12.354;2023-03-19T17:21:08;2.20;;;0.80;;
38909;SDS011;24676;51.360;12.354;2023-03-19T17:24:03;1.33;;;1.23;;
38909;SDS011;24676;51.360;12.354;2023-03-19T17:27:05;1.85;;;1.10;;
38909;SDS011;24676;51.360;12.354;2023-03-19T17:29:49;1.98;;;1.55;;
38909;SDS011;24676;51.360;12.354;2023-03-19T17:32:34;2.35;;;1.00;;
38909;SDS011;24676;51.360;12.354;2023-03-19T17:35:19;2.75;;;1.35;;
38909;SDS011;24676;51.360;12.354;2023-03-19T17:38:04;1.42;;;1.02;;
38909;SDS011;24676;51.360;12.354;2023-03-19T17:40:48;3.47;;;2.08;;
38909;SDS011;24676;51.360;12.354;2023-03-19T17:43:32;2.38;;;2.00;;
38909;SDS011;24676;51.360;12.354;2023-03-19T17:46:25;2.72;;;1.48;;
38909;SDS011;24676;51.360;12.354;2023-03-19T17:49:18;0.75;;;0.75;;
38909;SDS011;24676;51.360;12.354;2023-03-19T17:52:12;2.95;;;1.17;;
38909;SDS011;24676;51.360;12.354;2023-03-19T17:54:58;2.03;;;1.25;;
38909;SDS011;24676;51.360;12.354;2023-03-19T17:57:42;2.55;;;1.40;;
38909;SDS011;24676;51.360;12.354;2023-03-19T18:00:26;1.10;;;0.90;;
38909;SDS011;24676;51.360;12.354;2023-03-19T18:03:12;2.78;;;1.30;;
38909;SDS011;24676;51.360;12.354;2023-03-19T18:05:58;1.52;;;1.00;;
38909;SDS011;24676;51.360;12.354;2023-03-19T18:08:48;1.38;;;0.93;;
38909;SDS011;24676;51.360;12.354;2023-03-19T18:11:32;2.90;;;1.00;;
38909;SDS011;24676;51.360;12.354;2023-03-19T18:14:16;3.50;;;1.35;;
38909;SDS011;24676;51.360;12.354;2023-03-19T18:17:01;1.13;;;1.00;;
38909;SDS011;24676;51.360;12.354;2023-03-19T18:19:45;1.50;;;0.90;;
38909;SDS011;24676;51.360;12.354;2023-03-19T18:22:33;1.75;;;1.30;;
38909;SDS011;24676;51.360;12.354;2023-03-19T18:25:20;3.60;;;0.82;;
38909;SDS011;24676;51.360;12.354;2023-03-19T18:28:07;1.95;;;1.10;;
38909;SDS011;24676;51.360;12.354;2023-03-19T18:30:52;4.22;;;1.30;;
38909;SDS011;24676;51.360;12.354;2023-03-19T18:33:36;1.95;;;1.15;;
38909;SDS011;24676;51.360;12.354;2023-03-19T18:36:22;3.78;;;1.48;;
38909;SDS011;24676;51.360;12.354;2023-03-19T18:39:13;1.52;;;1.42;;
38909;SDS011;24676;51.360;12.354;2023-03-19T18:41:58;2.45;;;1.10;;